Time;durP1;ratioP1;P1;durP2;ratioP2;P2;SDS_P1;SDS_P2;PMS_P1;PMS_P2;Temp;Humidity;BMP_temperature;BMP_pressure;BME280_temperature;BME280_humidity;BME280_pressure;Samples;Min_cycle;Max_cycle;Signal;HPM_P1;HPM_P2
2022/05/25 00:01:42;;;;;;;1.40;0.90;;;15.80;99.90;;;;;;5991139;23;20528;-79
2022/05/25 00:04:10;;;;;;;1.80;1.00;;;15.90;99.90;;;;;;6000419;23;20963;-79
2022/05/25 00:06:37;;;;;;;1.07;0.90;;;15.90;99.90;;;;;;5988806;23;20500;-79
2022/05/25 00:09:04;;;;;;;1.50;0.87;;;15.80;99.90;;;;;;5998244;23;20480;-79
2022/05/25 00:11:33;;;;;;;1.20;1.10;;;15.80;99.90;;;;;;6002294;23;20564;-79
2022/05/25 00:14:00;;;;;;;0.90;0.77;;;15.80;99.90;;;;;;5996383;23;20543;-80
2022/05/25 00:16:27;;;;;;;1.30;0.80;;;15.80;99.90;;;;;;5999844;23;20509;-79
2022/05/25 00:21:38;;;;;;;1.13;0.90;;;15.80;99.90;;;;;;6002285;23;20459;-78
2022/05/25 00:24:06;;;;;;;1.33;0.80;;;15.80;99.90;;;;;;5986995;23;20536;-79
2022/05/25 00:26:35;;;;;;;1.07;0.97;;;15.70;99.90;;;;;;6009885;23;20556;-79
2022/05/25 00:29:02;;;;;;;1.73;0.90;;;15.70;99.90;;;;;;6002086;23;20480;-79
2022/05/25 00:31:30;;;;;;;0.90;0.80;;;15.70;99.90;;;;;;6000637;23;20528;-79
2022/05/25 00:33:57;;;;;;;1.90;1.00;;;15.70;99.90;;;;;;5989671;23;20774;-79
2022/05/25 00:36:24;;;;;;;0.80;0.80;;;15.70;99.90;;;;;;6007167;23;20496;-79
2022/05/25 00:38:51;;;;;;;1.30;1.00;;;15.70;99.90;;;;;;6009576;23;20835;-79
2022/05/25 00:41:22;;;;;;;1.30;0.90;;;15.60;99.90;;;;;;6009024;23;20469;-79
2022/05/25 00:43:50;;;;;;;1.30;1.20;;;15.60;99.90;;;;;;6003305;23;20524;-79
2022/05/25 00:46:20;;;;;;;1.10;0.87;;;15.60;99.90;;;;;;5997487;23;20500;-79
2022/05/25 00:48:50;;;;;;;0.90;0.90;;;15.50;99.90;;;;;;5989465;23;20512;-79
2022/05/25 00:51:22;;;;;;;1.30;0.90;;;15.50;99.90;;;;;;5986726;23;20437;-79
2022/05/25 00:53:55;;;;;;;1.43;1.07;;;15.50;99.90;;;;;;5992927;23;20448;-79
2022/05/25 00:56:24;;;;;;;1.20;1.10;;;15.40;99.90;;;;;;6002314;23;20477;-79
2022/05/25 00:58:57;;;;;;;1.10;1.00;;;15.40;99.90;;;;;;6006690;23;20461;-79
2022/05/25 01:01:25;;;;;;;1.47;0.93;;;15.40;99.90;;;;;;5987391;23;20512;-79
2022/05/25 01:03:52;;;;;;;1.03;0.90;;;15.40;99.90;;;;;;5989699;23;20451;-78
2022/05/25 01:06:32;;;;;;;1.73;1.00;;;15.50;99.90;;;;;;5992993;23;20907;-79
2022/05/25 01:09:08;;;;;;;1.00;0.90;;;15.40;99.90;;;;;;6000768;23;20955;-79
2022/05/25 01:11:48;;;;;;;1.93;0.90;;;15.30;99.90;;;;;;5983329;23;20455;-79
2022/05/25 01:14:27;;;;;;;1.00;0.87;;;15.20;99.90;;;;;;5986718;23;20792;-79
2022/05/25 01:17:03;;;;;;;1.60;1.10;;;15.20;99.90;;;;;;6010899;23;20500;-79
2022/05/25 01:19:54;;;;;;;1.03;0.80;;;15.20;99.90;;;;;;6001605;23;20960;-79
2022/05/25 01:22:42;;;;;;;0.90;0.90;;;15.20;99.90;;;;;;6000318;23;20988;-79
2022/05/25 01:25:15;;;;;;;1.80;1.00;;;15.20;99.90;;;;;;5990967;23;20446;-79
2022/05/25 01:27:44;;;;;;;0.80;0.80;;;15.10;99.90;;;;;;5990825;23;20472;-79
2022/05/25 01:30:17;;;;;;;1.00;0.90;;;15.10;99.90;;;;;;6001865;23;20453;-79
2022/05/25 01:32:53;;;;;;;1.10;0.83;;;15.10;99.90;;;;;;6003277;23;20442;-79
2022/05/25 01:35:28;;;;;;;1.77;1.17;;;15.00;99.90;;;;;;5997663;23;20559;-79
2022/05/25 01:38:00;;;;;;;1.30;1.00;;;15.00;99.90;;;;;;5995177;23;20508;-79
2022/05/25 01:40:42;;;;;;;2.40;1.00;;;15.10;99.90;;;;;;6003788;23;20468;-79
2022/05/25 01:43:13;;;;;;;1.10;1.00;;;15.10;99.90;;;;;;5996203;23;20509;-79
2022/05/25 01:45:46;;;;;;;0.90;0.90;;;15.10;99.90;;;;;;5987538;23;20446;-79
2022/05/25 01:48:16;;;;;;;1.63;1.10;;;15.00;99.90;;;;;;5997404;23;20445;-79
2022/05/25 01:50:48;;;;;;;0.70;0.70;;;14.90;99.90;;;;;;6000699;23;20441;-79
2022/05/25 01:53:18;;;;;;;1.33;0.90;;;14.90;99.90;;;;;;5998032;23;20453;-79
2022/05/25 01:55:49;;;;;;;1.47;0.80;;;14.90;99.90;;;;;;5998524;23;20576;-79
2022/05/25 01:58:18;;;;;;;5.00;1.07;;;15.00;99.90;;;;;;5994782;23;21037;-79
2022/05/25 02:00:49;;;;;;;1.40;0.80;;;15.00;99.90;;;;;;5994553;23;21029;-79
2022/05/25 02:06:21;;;;;;;0.93;0.70;;;15.00;99.90;;;;;;5998967;23;20468;-79
2022/05/25 02:09:12;;;;;;;1.23;0.87;;;14.90;99.90;;;;;;5997093;23;20528;-78
2022/05/25 02:11:43;;;;;;;1.63;0.97;;;14.80;99.90;;;;;;5996192;23;20455;-79
2022/05/25 02:14:21;;;;;;;2.40;0.83;;;14.80;99.90;;;;;;6000761;23;20487;-79
2022/05/25 02:16:57;;;;;;;0.80;0.80;;;14.80;99.90;;;;;;5994256;23;20478;-79
2022/05/25 02:19:31;;;;;;;1.13;0.80;;;14.80;99.90;;;;;;5997360;23;21077;-79
2022/05/25 02:22:11;;;;;;;1.20;1.10;;;14.80;99.90;;;;;;5999070;23;20468;-79
2022/05/25 02:24:43;;;;;;;1.60;0.70;;;14.80;99.90;;;;;;5993487;23;20448;-78
2022/05/25 02:27:16;;;;;;;1.30;0.73;;;14.70;99.90;;;;;;5995039;23;20465;-79
2022/05/25 02:29:47;;;;;;;1.50;0.97;;;14.70;99.90;;;;;;5997333;23;20456;-79
2022/05/25 02:32:20;;;;;;;1.10;0.80;;;14.70;99.90;;;;;;5999221;23;20536;-79
2022/05/25 02:34:50;;;;;;;1.10;0.90;;;14.60;99.90;;;;;;5998331;23;20477;-79
2022/05/25 02:37:20;;;;;;;1.10;0.90;;;14.60;99.90;;;;;;5983806;23;21054;-78
2022/05/25 02:39:50;;;;;;;2.53;0.80;;;14.60;99.90;;;;;;5999854;23;20434;-79
2022/05/25 02:42:17;;;;;;;1.00;0.90;;;14.60;99.90;;;;;;6006316;23;20448;-79
2022/05/25 02:44:45;;;;;;;1.30;0.80;;;14.60;99.90;;;;;;5983238;23;20801;-79
2022/05/25 02:47:13;;;;;;;2.30;0.80;;;14.60;99.90;;;;;;5992931;23;20495;-79
2022/05/25 02:49:41;;;;;;;1.30;0.97;;;14.60;99.90;;;;;;6007573;23;20436;-79
2022/05/25 02:52:10;;;;;;;1.60;0.90;;;14.60;99.90;;;;;;6011459;23;20746;-79
2022/05/25 02:54:38;;;;;;;1.10;1.00;;;14.70;99.90;;;;;;5994791;23;20463;-78
2022/05/25 02:57:06;;;;;;;2.70;1.13;;;14.70;99.90;;;;;;5991691;23;20497;-79
2022/05/25 02:59:33;;;;;;;1.10;0.90;;;14.60;99.90;;;;;;6002719;23;20457;-79
2022/05/25 03:02:02;;;;;;;1.50;0.97;;;14.60;99.90;;;;;;5996549;23;20457;-79
2022/05/25 03:04:30;;;;;;;1.20;1.10;;;14.70;99.90;;;;;;5986737;23;20538;-79
2022/05/25 03:06:58;;;;;;;4.30;1.23;;;14.70;99.90;;;;;;5999512;23;20551;-78
2022/05/25 03:09:25;;;;;;;0.80;0.80;;;14.60;99.90;;;;;;6022401;23;20471;-79
2022/05/25 03:11:53;;;;;;;1.10;1.00;;;14.60;99.90;;;;;;6002238;23;20452;-79
2022/05/25 03:14:20;;;;;;;2.37;1.10;;;14.60;99.90;;;;;;6002621;23;20468;-79
2022/05/25 03:16:46;;;;;;;1.30;1.20;;;14.50;99.90;;;;;;5999926;23;20572;-79
2022/05/25 03:19:13;;;;;;;1.10;1.00;;;14.60;99.90;;;;;;6002714;23;20998;-79
2022/05/25 03:21:40;;;;;;;2.03;0.97;;;14.60;99.90;;;;;;6003438;23;20529;-79
2022/05/25 03:24:10;;;;;;;1.57;1.10;;;14.60;99.90;;;;;;5996745;23;20452;-79
2022/05/25 03:26:37;;;;;;;1.47;1.10;;;14.70;99.90;;;;;;6001511;23;20464;-78
2022/05/25 03:29:04;;;;;;;0.93;0.80;;;14.70;99.90;;;;;;6002186;23;20452;-79
2022/05/25 03:31:31;;;;;;;1.77;0.97;;;14.70;99.90;;;;;;6002889;23;20480;-78
2022/05/25 03:33:58;;;;;;;1.30;0.97;;;14.70;99.90;;;;;;6002104;23;20441;-79
2022/05/25 03:36:25;;;;;;;1.77;1.03;;;14.60;99.90;;;;;;6002573;23;20551;-79
2022/05/25 03:38:51;;;;;;;1.00;0.80;;;14.60;99.90;;;;;;5999131;23;20488;-79
2022/05/25 03:41:21;;;;;;;1.40;1.03;;;14.70;99.90;;;;;;6001819;23;20469;-79
2022/05/25 03:43:48;;;;;;;1.20;1.00;;;14.60;99.90;;;;;;6000089;23;20495;-78
2022/05/25 03:46:15;;;;;;;3.90;1.50;;;14.60;99.90;;;;;;5999888;23;20555;-79
2022/05/25 03:48:42;;;;;;;1.30;1.10;;;14.60;99.90;;;;;;5997410;23;20868;-79
2022/05/25 03:51:09;;;;;;;1.20;1.10;;;14.60;99.90;;;;;;6004572;23;20441;-79
2022/05/25 03:53:36;;;;;;;1.23;1.13;;;14.50;99.90;;;;;;6000011;23;20544;-78
2022/05/25 03:56:05;;;;;;;1.67;1.07;;;14.50;99.90;;;;;;5998434;23;20478;-78
2022/05/25 03:58:33;;;;;;;1.30;1.20;;;14.60;99.90;;;;;;5996125;23;20453;-79
2022/05/25 04:01:00;;;;;;;2.27;1.30;;;14.60;99.90;;;;;;5999413;23;20865;-79
2022/05/25 04:03:27;;;;;;;1.70;0.90;;;14.60;99.90;;;;;;5998114;23;20536;-79
2022/05/25 04:05:54;;;;;;;1.03;0.93;;;14.60;99.90;;;;;;6024913;23;20463;-79
2022/05/25 04:08:20;;;;;;;1.63;1.10;;;14.60;99.90;;;;;;6000648;23;20548;-79
2022/05/25 04:10:47;;;;;;;1.40;1.00;;;14.60;99.90;;;;;;6002730;23;20441;-80
2022/05/25 04:13:16;;;;;;;1.50;1.00;;;14.60;99.90;;;;;;6002795;23;20455;-83
2022/05/25 04:15:44;;;;;;;1.30;0.90;;;14.60;99.90;;;;;;5993051;23;20477;-80
2022/05/25 04:18:11;;;;;;;1.03;0.93;;;14.60;99.90;;;;;;6001461;23;20539;-79
2022/05/25 04:20:38;;;;;;;1.67;1.00;;;14.50;99.90;;;;;;6003310;23;20449;-79
2022/05/25 04:23:10;;;;;;;1.10;1.00;;;14.40;99.90;;;;;;5999676;23;20526;-80
2022/05/25 04:25:39;;;;;;;1.50;1.00;;;14.40;99.90;;;;;;6005264;23;20722;-79
2022/05/25 04:28:06;;;;;;;0.83;0.83;;;14.30;99.90;;;;;;5999417;23;21036;-78
2022/05/25 04:30:33;;;;;;;2.07;1.10;;;14.30;99.90;;;;;;6002506;23;20507;-80
2022/05/25 04:33:02;;;;;;;1.40;1.20;;;14.30;99.90;;;;;;6003242;23;20453;-79
2022/05/25 04:35:29;;;;;;;1.90;1.20;;;14.30;99.90;;;;;;5971449;23;20480;-81
2022/05/25 04:37:56;;;;;;;2.00;0.97;;;14.30;99.90;;;;;;5991183;23;20548;-81
2022/05/25 04:40:29;;;;;;;1.10;0.97;;;14.30;99.90;;;;;;5991948;23;20961;-80
2022/05/25 04:42:58;;;;;;;1.20;1.10;;;14.30;99.90;;;;;;5993190;23;20449;-80
2022/05/25 04:45:26;;;;;;;1.20;1.07;;;14.30;99.90;;;;;;5992852;23;20525;-80
2022/05/25 04:47:54;;;;;;;2.80;1.30;;;14.20;99.90;;;;;;5985712;23;20450;-79
2022/05/25 04:50:24;;;;;;;3.63;1.10;;;14.20;99.90;;;;;;5999452;23;20441;-80
2022/05/25 04:52:53;;;;;;;1.93;1.50;;;14.20;99.90;;;;;;5996335;23;20472;-80
2022/05/25 04:58:06;;;;;;;1.40;1.30;;;14.20;99.90;;;;;;5997588;23;20947;-80
2022/05/25 05:00:34;;;;;;;1.50;1.40;;;14.20;99.90;;;;;;5991350;23;20557;-80
2022/05/25 05:03:01;;;;;;;2.60;2.27;;;14.20;99.90;;;;;;5994217;23;21740;-79
2022/05/25 05:05:30;;;;;;;3.50;1.07;;;14.20;99.90;;;;;;5992010;23;20465;-83
2022/05/25 05:07:57;;;;;;;5.43;1.70;;;14.20;99.90;;;;;;5989571;23;20441;-77
2022/05/25 05:10:23;;;;;;;1.27;1.17;;;14.20;99.90;;;;;;5997850;23;20452;-77
2022/05/25 05:12:50;;;;;;;2.00;1.23;;;14.20;99.90;;;;;;5999090;23;20563;-76
2022/05/25 05:15:19;;;;;;;1.90;1.00;;;14.10;99.90;;;;;;5991713;23;20457;-76
2022/05/25 05:17:45;;;;;;;1.20;1.10;;;14.20;99.90;;;;;;5989669;23;20465;-76
2022/05/25 05:20:13;;;;;;;3.17;1.30;;;14.10;99.90;;;;;;5996230;23;20461;-78
2022/05/25 05:22:41;;;;;;;1.33;1.13;;;14.20;99.90;;;;;;5995208;23;20429;-78
2022/05/25 05:25:09;;;;;;;1.30;1.20;;;14.30;99.90;;;;;;5994142;23;20474;-79
2022/05/25 05:27:36;;;;;;;2.80;1.20;;;14.30;99.90;;;;;;6002643;23;20529;-79
2022/05/25 05:30:06;;;;;;;2.00;1.13;;;14.40;99.90;;;;;;5999352;23;20480;-79
2022/05/25 05:32:35;;;;;;;1.70;1.17;;;14.40;99.90;;;;;;5998373;23;20445;-79
2022/05/25 05:35:04;;;;;;;1.07;0.97;;;14.50;99.90;;;;;;5999880;23;20452;-79
2022/05/25 05:37:35;;;;;;;1.83;1.30;;;14.50;99.90;;;;;;5993559;23;20477;-79
2022/05/25 05:40:07;;;;;;;2.27;1.20;;;14.50;99.90;;;;;;5998766;23;20484;-79
2022/05/25 05:42:36;;;;;;;1.33;1.10;;;14.50;99.90;;;;;;6012437;23;20512;-79
2022/05/25 05:45:07;;;;;;;1.90;1.23;;;14.50;99.90;;;;;;5992627;23;20446;-79
2022/05/25 05:47:40;;;;;;;2.40;1.27;;;14.50;99.90;;;;;;5992790;23;20779;-79
2022/05/25 05:50:09;;;;;;;1.20;1.07;;;14.50;99.90;;;;;;5988356;23;20445;-79
2022/05/25 05:52:37;;;;;;;1.57;1.17;;;14.60;99.90;;;;;;5993270;23;20461;-79
2022/05/25 05:55:06;;;;;;;1.50;1.13;;;14.70;99.90;;;;;;5997901;23;20545;-79
2022/05/25 05:57:35;;;;;;;1.53;1.13;;;14.80;99.90;;;;;;5995829;23;20469;-79
2022/05/25 06:00:04;;;;;;;1.13;1.03;;;14.90;99.90;;;;;;6002290;23;20619;-79
2022/05/25 06:02:31;;;;;;;1.43;1.33;;;15.00;99.90;;;;;;5993318;23;20442;-79
2022/05/25 06:04:58;;;;;;;1.23;1.00;;;15.10;99.90;;;;;;5987958;23;20527;-79
2022/05/25 06:07:25;;;;;;;2.17;1.50;;;15.20;99.90;;;;;;5995947;23;20974;-77
2022/05/25 06:09:52;;;;;;;1.10;1.00;;;15.30;99.90;;;;;;5990459;23;21016;-79
2022/05/25 06:12:20;;;;;;;1.40;1.30;;;15.40;99.90;;;;;;5986941;23;20461;-79
2022/05/25 06:14:47;;;;;;;3.23;1.43;;;15.40;99.90;;;;;;5995779;23;20465;-80
2022/05/25 06:19:59;;;;;;;1.73;1.20;;;15.40;99.90;;;;;;5984583;23;20442;-79
2022/05/25 06:22:27;;;;;;;2.30;1.27;;;15.50;99.90;;;;;;6000157;23;20532;-79
2022/05/25 06:24:54;;;;;;;1.20;1.10;;;15.50;99.90;;;;;;5993242;23;20453;-79
2022/05/25 06:27:23;;;;;;;1.40;1.00;;;15.80;99.90;;;;;;6000996;23;20438;-79
2022/05/25 06:29:50;;;;;;;2.40;1.43;;;15.90;99.90;;;;;;5983986;23;20504;-79
2022/05/25 06:32:20;;;;;;;3.30;1.50;;;16.20;99.90;;;;;;5986200;23;20775;-79
2022/05/25 06:34:48;;;;;;;1.40;1.30;;;16.50;99.90;;;;;;5998900;23;20486;-80
2022/05/25 06:37:16;;;;;;;2.20;1.40;;;16.90;99.90;;;;;;5996828;23;20598;-79
2022/05/25 06:39:44;;;;;;;1.80;1.00;;;17.20;99.90;;;;;;6000497;23;20454;-80
2022/05/25 06:42:12;;;;;;;2.03;1.20;;;17.40;99.90;;;;;;5993768;23;20451;-75
2022/05/25 06:44:41;;;;;;;3.27;1.30;;;17.60;99.90;;;;;;5989040;23;20495;-73
2022/05/25 06:47:09;;;;;;;1.50;1.13;;;17.90;99.90;;;;;;5996704;23;20449;-76
2022/05/25 06:49:36;;;;;;;2.80;1.40;;;18.10;99.90;;;;;;5992633;23;20718;-80
2022/05/25 06:52:04;;;;;;;1.97;1.10;;;18.30;99.90;;;;;;5995892;23;20445;-80
2022/05/25 06:54:31;;;;;;;1.40;1.30;;;18.40;99.90;;;;;;5991468;23;20543;-79
2022/05/25 06:56:58;;;;;;;1.63;1.00;;;18.40;99.90;;;;;;6001349;23;20465;-80
2022/05/25 06:59:25;;;;;;;1.67;1.13;;;18.40;99.90;;;;;;5994867;23;20488;-80
2022/05/25 07:01:53;;;;;;;2.40;1.63;;;18.30;99.90;;;;;;5988781;23;20532;-79
2022/05/25 07:04:21;;;;;;;2.73;1.40;;;18.10;99.90;;;;;;5991703;23;20464;-79
2022/05/25 07:06:48;;;;;;;2.23;1.40;;;18.00;99.90;;;;;;6001425;23;20480;-80
2022/05/25 07:09:15;;;;;;;1.50;0.90;;;17.90;99.90;;;;;;5999253;23;20448;-79
2022/05/25 07:11:43;;;;;;;1.93;0.93;;;17.90;99.90;;;;;;6000622;23;20472;-80
2022/05/25 07:14:10;;;;;;;2.00;1.13;;;17.90;99.90;;;;;;5996351;23;20931;-80
2022/05/25 07:16:37;;;;;;;1.83;1.03;;;17.90;99.90;;;;;;5994129;23;20587;-80
2022/05/25 07:19:06;;;;;;;1.20;1.10;;;18.00;99.90;;;;;;5991588;23;20854;-80
2022/05/25 07:21:34;;;;;;;3.57;1.20;;;18.10;99.90;;;;;;5996234;23;20998;-79
2022/05/25 07:24:02;;;;;;;1.73;1.20;;;18.20;99.90;;;;;;5993745;23;20473;-80
2022/05/25 07:26:32;;;;;;;1.80;1.30;;;18.40;99.90;;;;;;6000496;23;21035;-80
2022/05/25 07:29:00;;;;;;;1.77;1.43;;;18.50;99.90;;;;;;5998154;23;20437;-79
2022/05/25 07:31:30;;;;;;;1.97;1.10;;;19.00;99.90;;;;;;5991345;23;20544;-80
2022/05/25 07:34:04;;;;;;;4.00;1.27;;;19.40;98.90;;;;;;5994992;23;20524;-79
2022/05/25 07:36:34;;;;;;;1.10;1.00;;;19.70;97.80;;;;;;5997558;23;20471;-79
2022/05/25 07:39:04;;;;;;;1.83;1.30;;;20.10;97.30;;;;;;5996135;23;20445;-79
2022/05/25 07:41:34;;;;;;;1.73;1.20;;;20.30;96.50;;;;;;6000024;23;20440;-80
2022/05/25 07:44:02;;;;;;;2.87;1.40;;;20.80;96.70;;;;;;5995553;23;20456;-80
2022/05/25 07:46:30;;;;;;;1.87;1.50;;;21.40;94.80;;;;;;5993902;23;20461;-80
2022/05/25 07:48:57;;;;;;;4.93;1.50;;;22.00;93.40;;;;;;5999293;23;21408;-80
2022/05/25 07:51:26;;;;;;;0.90;0.90;;;22.70;92.10;;;;;;6000865;23;20445;-80
2022/05/25 07:53:57;;;;;;;2.57;1.20;;;23.20;91.00;;;;;;5981874;23;20839;-80
2022/05/25 07:56:25;;;;;;;2.93;1.10;;;23.60;89.30;;;;;;5992419;23;20453;-80
2022/05/25 07:58:54;;;;;;;3.10;1.30;;;23.60;84.40;;;;;;5993758;23;20477;-80
2022/05/25 08:05:43;;;;;;;2.53;1.10;;;23.60;86.80;;;;;;5998921;23;20929;-80
2022/05/25 08:07:01;;;;;;;3.10;2.10;;;24.40;84.00;;;;;;5997269;23;20506;-80
2022/05/25 08:09:31;;;;;;;2.67;1.20;;;24.30;84.20;;;;;;5998109;23;20500;-80
2022/05/25 08:12:00;;;;;;;1.50;1.20;;;24.20;84.90;;;;;;5996081;23;20512;-80
2022/05/25 08:14:29;;;;;;;3.50;1.20;;;24.50;83.70;;;;;;5998595;23;20448;-80
2022/05/25 08:16:56;;;;;;;1.87;1.20;;;24.90;83.80;;;;;;5996112;23;20468;-80
2022/05/25 08:19:23;;;;;;;2.00;1.10;;;25.30;82.90;;;;;;5997916;23;20507;-80
2022/05/25 08:21:51;;;;;;;2.10;1.30;;;25.70;78.90;;;;;;5997567;23;20604;-80
2022/05/25 08:24:19;;;;;;;3.03;1.10;;;25.40;78.90;;;;;;5995246;23;20446;-80
2022/05/25 08:26:47;;;;;;;1.67;1.00;;;25.00;80.20;;;;;;6000614;23;20461;-80
2022/05/25 08:29:15;;;;;;;2.20;1.00;;;24.60;81.50;;;;;;5995160;23;20519;-80
2022/05/25 08:31:42;;;;;;;3.17;1.30;;;24.30;79.80;;;;;;6013195;23;20472;-80
2022/05/25 08:34:09;;;;;;;1.93;1.30;;;24.30;81.10;;;;;;6025156;23;20471;-80
2022/05/25 08:36:37;;;;;;;2.20;1.20;;;24.50;78.60;;;;;;6005261;23;20505;-80
2022/05/25 08:39:03;;;;;;;2.43;1.40;;;24.80;78.50;;;;;;6009499;23;20449;-80
2022/05/25 08:41:34;;;;;;;1.57;1.00;;;25.30;79.00;;;;;;6009736;23;20460;-80
2022/05/25 08:44:05;;;;;;;1.10;1.00;;;25.80;78.30;;;;;;6014535;23;20524;-80
2022/05/25 08:46:33;;;;;;;1.63;1.23;;;26.00;72.20;;;;;;6005903;23;20485;-80
2022/05/25 08:49:01;;;;;;;6.77;1.50;;;25.10;73.80;;;;;;6005546;23;20445;-80
2022/05/25 08:51:30;;;;;;;2.80;1.70;;;24.70;74.80;;;;;;6001636;23;20442;-80
2022/05/25 08:53:58;;;;;;;3.00;1.57;;;24.50;74.70;;;;;;6007743;23;20437;-80
2022/05/25 08:56:30;;;;;;;1.37;1.00;;;24.50;74.80;;;;;;5996184;23;20476;-80
2022/05/25 08:59:05;;;;;;;1.10;0.83;;;24.50;74.80;;;;;;5998829;23;20473;-80
2022/05/25 09:01:38;;;;;;;1.23;1.00;;;24.10;75.60;;;;;;5981363;23;20443;-80
2022/05/25 09:04:13;;;;;;;1.40;1.00;;;24.70;77.80;;;;;;5995962;23;20441;-80
2022/05/25 09:06:47;;;;;;;1.90;1.10;;;25.20;71.50;;;;;;5998036;23;20484;-80
2022/05/25 09:09:24;;;;;;;2.27;1.17;;;25.90;72.40;;;;;;5996878;23;20519;-80
2022/05/25 09:11:55;;;;;;;1.10;0.80;;;26.50;69.10;;;;;;6002864;23;20805;-80
2022/05/25 09:14:31;;;;;;;1.10;1.00;;;27.00;68.50;;;;;;5993834;23;20524;-81
2022/05/25 09:17:01;;;;;;;1.37;1.00;;;27.30;64.30;;;;;;5987308;23;20437;-80
2022/05/25 09:19:32;;;;;;;1.20;1.03;;;27.30;63.40;;;;;;5993801;23;20497;-80
2022/05/25 09:22:02;;;;;;;1.70;1.20;;;27.00;64.20;;;;;;5998362;23;20449;-80
2022/05/25 09:24:32;;;;;;;2.03;1.00;;;26.60;63.70;;;;;;6004344;23;20927;-80
2022/05/25 09:27:00;;;;;;;0.90;0.80;;;26.30;65.50;;;;;;5996736;23;21622;-80
2022/05/25 09:29:29;;;;;;;1.93;0.90;;;26.10;64.30;;;;;;6001484;23;20444;-80
2022/05/25 09:32:00;;;;;;;1.10;1.00;;;26.00;64.90;;;;;;5981480;23;20510;-80
2022/05/25 09:34:36;;;;;;;1.40;1.00;;;25.90;63.00;;;;;;5976444;23;20468;-80
2022/05/25 09:37:10;;;;;;;1.00;0.90;;;26.20;63.70;;;;;;6001184;23;20921;-80
2022/05/25 09:39:43;;;;;;;2.40;1.10;;;26.40;63.30;;;;;;5997927;23;20503;-80
2022/05/25 09:42:14;;;;;;;2.97;1.00;;;25.40;63.70;;;;;;5990033;23;20936;-80
2022/05/25 09:44:43;;;;;;;1.70;0.97;;;25.00;67.20;;;;;;5990998;23;20457;-79
2022/05/25 09:47:20;;;;;;;1.90;0.90;;;25.00;64.70;;;;;;6000148;23;20521;-79
2022/05/25 09:49:49;;;;;;;1.40;0.80;;;24.70;65.40;;;;;;5999157;23;20472;-80
2022/05/25 09:52:20;;;;;;;7.00;1.10;;;24.70;64.90;;;;;;5998521;23;20789;-80
2022/05/25 09:54:56;;;;;;;2.17;0.90;;;24.10;63.00;;;;;;5995482;23;20540;-80
2022/05/25 09:57:28;;;;;;;1.90;1.00;;;23.80;65.80;;;;;;6001207;23;20494;-80
2022/05/25 10:00:01;;;;;;;1.40;0.90;;;24.10;66.00;;;;;;5998797;23;20853;-80
2022/05/25 10:02:34;;;;;;;1.00;0.90;;;24.60;64.40;;;;;;6001562;23;20429;-80
2022/05/25 10:05:17;;;;;;;1.03;0.80;;;25.10;63.50;;;;;;5993014;23;20472;-80
2022/05/25 10:07:52;;;;;;;1.30;0.80;;;26.00;64.60;;;;;;5993397;23;20826;-80
2022/05/25 10:10:26;;;;;;;1.30;0.83;;;25.90;63.90;;;;;;5998105;23;20929;-80
2022/05/25 10:13:01;;;;;;;1.10;1.00;;;26.00;63.60;;;;;;6002483;23;20444;-80
2022/05/25 10:15:35;;;;;;;1.40;0.90;;;25.90;62.20;;;;;;6001614;23;20453;-80
2022/05/25 10:18:04;;;;;;;0.70;0.70;;;26.00;62.60;;;;;;5997420;23;20474;-80
2022/05/25 10:20:34;;;;;;;1.87;0.80;;;26.40;59.80;;;;;;5999280;23;20460;-80
2022/05/25 10:23:06;;;;;;;1.20;1.00;;;26.50;59.70;;;;;;5998126;23;20469;-80
2022/05/25 10:25:40;;;;;;;1.33;0.80;;;26.80;60.30;;;;;;5990690;23;20458;-79
2022/05/25 10:28:20;;;;;;;1.30;0.90;;;27.20;59.40;;;;;;5992900;23;20460;-80
2022/05/25 10:36:49;;;;;;;2.30;0.90;;;25.70;61.20;;;;;;5995620;23;20461;-80
2022/05/25 10:39:19;;;;;;;1.60;0.77;;;26.70;60.20;;;;;;5995079;23;20560;-80
2022/05/25 10:41:59;;;;;;;4.20;1.20;;;26.70;58.50;;;;;;6000484;23;20440;-80
2022/05/25 10:44:27;;;;;;;2.67;0.87;;;26.70;59.00;;;;;;5996109;23;20828;-80
2022/05/25 10:46:58;;;;;;;1.10;0.93;;;27.30;57.90;;;;;;6004511;23;20500;-80
2022/05/25 10:49:31;;;;;;;2.07;1.90;;;28.10;57.70;;;;;;5994674;23;20442;-80
2022/05/25 10:52:03;;;;;;;1.00;0.90;;;28.70;57.00;;;;;;5990634;23;20445;-80
2022/05/25 10:54:45;;;;;;;1.30;0.90;;;28.80;56.10;;;;;;5988212;23;20527;-80
2022/05/25 10:57:47;;;;;;;1.93;0.97;;;28.60;54.30;;;;;;5996601;23;20528;-80
2022/05/25 11:00:18;;;;;;;2.00;1.03;;;27.90;56.50;;;;;;5994265;23;20944;-80
2022/05/25 11:03:19;;;;;;;1.00;0.70;;;28.00;57.70;;;;;;5994939;23;20445;-81
2022/05/25 11:05:56;;;;;;;1.30;0.80;;;28.10;56.70;;;;;;5991260;23;20488;-80
2022/05/25 11:08:35;;;;;;;1.00;0.83;;;28.30;55.90;;;;;;5999388;23;20456;-81
2022/05/25 11:11:08;;;;;;;1.43;0.80;;;28.70;55.70;;;;;;5997749;23;20515;-80
2022/05/25 11:14:02;;;;;;;2.53;1.20;;;29.20;55.30;;;;;;5989069;23;20444;-80
2022/05/25 11:16:40;;;;;;;1.13;0.90;;;29.60;55.10;;;;;;6000087;23;20508;-80
2022/05/25 11:19:33;;;;;;;1.93;1.00;;;29.90;53.80;;;;;;5993302;23;20463;-82
2022/05/25 11:22:12;;;;;;;1.37;1.00;;;30.00;53.80;;;;;;5994612;23;20785;-81
2022/05/25 11:24:50;;;;;;;1.40;0.80;;;29.90;53.40;;;;;;5996494;23;20540;-82
2022/05/25 11:27:39;;;;;;;1.40;0.80;;;30.00;52.50;;;;;;5980790;23;20443;-82
2022/05/25 11:30:14;;;;;;;2.93;1.00;;;30.20;51.60;;;;;;5986225;23;20448;-81
2022/05/25 11:33:03;;;;;;;2.50;0.90;;;30.10;51.80;;;;;;5989418;23;20771;-82
2022/05/25 11:35:46;;;;;;;1.10;0.90;;;30.30;52.70;;;;;;5993901;23;20461;-81
2022/05/25 11:38:25;;;;;;;1.50;0.90;;;30.60;50.30;;;;;;5998259;23;20532;-81
2022/05/25 11:41:03;;;;;;;1.20;0.90;;;30.60;50.00;;;;;;5998363;23;20469;-81
2022/05/25 11:43:55;;;;;;;1.30;1.03;;;30.20;51.80;;;;;;5985593;23;20437;-81
2022/05/25 11:46:33;;;;;;;1.37;1.00;;;29.40;51.30;;;;;;5997824;23;20512;-81
2022/05/25 11:49:26;;;;;;;1.47;0.90;;;28.90;52.40;;;;;;5986332;23;20437;-82
2022/05/25 11:52:03;;;;;;;2.10;0.90;;;28.80;51.60;;;;;;5996362;23;20452;-81
2022/05/25 11:54:42;;;;;;;1.27;0.90;;;28.50;51.70;;;;;;5998578;23;20496;-81
2022/05/25 11:57:16;;;;;;;2.03;0.93;;;28.40;52.20;;;;;;5993507;23;20552;-80
2022/05/25 12:00:05;;;;;;;1.63;1.00;;;28.40;52.10;;;;;;5990329;23;20469;-81
2022/05/25 12:03:07;;;;;;;1.10;0.90;;;28.40;51.40;;;;;;5992781;23;20484;-80
2022/05/25 12:05:47;;;;;;;1.30;0.70;;;28.20;51.30;;;;;;5983359;23;20845;-82
2022/05/25 12:08:33;;;;;;;1.17;0.90;;;28.40;51.20;;;;;;5995230;23;20448;-81
2022/05/25 12:11:07;;;;;;;3.37;0.93;;;28.60;51.10;;;;;;5997829;23;21061;-81
2022/05/25 12:13:42;;;;;;;2.20;0.90;;;28.70;53.10;;;;;;5997038;23;20571;-82
2022/05/25 12:16:16;;;;;;;0.83;0.73;;;28.70;51.50;;;;;;5987346;23;20440;-74
2022/05/25 12:18:50;;;;;;;2.80;0.90;;;28.50;51.00;;;;;;5995772;23;20531;-74
2022/05/25 12:21:22;;;;;;;1.43;0.80;;;28.20;51.20;;;;;;6001642;23;20449;-74
2022/05/25 12:23:56;;;;;;;1.97;0.87;;;28.20;50.70;;;;;;5999884;23;21137;-74
2022/05/25 12:26:27;;;;;;;1.03;0.80;;;28.50;52.70;;;;;;5989810;23;20843;-75
2022/05/25 12:29:04;;;;;;;2.10;0.90;;;29.00;49.80;;;;;;5994572;23;20771;-74
2022/05/25 12:31:31;;;;;;;2.13;0.93;;;29.60;51.30;;;;;;6000730;23;20520;-75
2022/05/25 12:33:59;;;;;;;1.50;0.90;;;29.90;50.80;;;;;;5995784;23;20457;-74
2022/05/25 12:36:26;;;;;;;1.63;0.90;;;30.00;50.10;;;;;;5990195;23;21205;-75
2022/05/25 12:38:55;;;;;;;0.80;0.70;;;30.00;50.00;;;;;;5994611;23;20470;-75
2022/05/25 12:41:26;;;;;;;1.03;0.90;;;28.80;49.40;;;;;;6002192;23;21030;-74
2022/05/25 12:43:56;;;;;;;1.10;0.90;;;27.80;50.80;;;;;;5996435;23;20482;-74
2022/05/25 12:49:59;;;;;;;2.60;1.00;;;28.00;51.10;;;;;;5988478;23;20446;-74
2022/05/25 12:52:43;;;;;;;2.07;1.03;;;28.30;50.50;;;;;;5990166;23;20512;-75
2022/05/25 12:55:33;;;;;;;2.30;0.90;;;28.80;50.70;;;;;;5995030;23;20457;-75
2022/05/25 12:58:01;;;;;;;1.40;1.00;;;29.80;50.00;;;;;;5994536;23;20449;-74
2022/05/25 13:00:39;;;;;;;2.60;0.90;;;30.60;48.10;;;;;;5997625;23;20516;-74
2022/05/25 13:03:22;;;;;;;1.37;0.70;;;31.00;47.80;;;;;;5995384;23;20437;-74
2022/05/25 13:05:55;;;;;;;1.67;0.90;;;31.40;48.40;;;;;;5996234;23;20552;-75
2022/05/25 13:09:06;;;;;;;2.03;1.00;;;32.40;47.80;;;;;;5992690;23;21547;-74
2022/05/25 13:11:38;;;;;;;2.70;0.90;;;30.90;45.50;;;;;;5987639;23;20445;-74
2022/05/25 13:14:26;;;;;;;1.73;0.90;;;32.60;47.10;;;;;;5987281;23;20464;-74
2022/05/25 13:16:57;;;;;;;1.13;0.90;;;34.20;44.70;;;;;;5985470;23;20433;-74
2022/05/25 13:19:41;;;;;;;1.70;1.00;;;35.50;42.80;;;;;;5983772;23;21099;-74
2022/05/25 13:22:27;;;;;;;1.00;0.80;;;37.00;41.20;;;;;;5990137;23;20464;-74
2022/05/25 13:25:16;;;;;;;3.87;1.23;;;38.30;39.00;;;;;;5987167;23;20457;-74
2022/05/25 13:28:18;;;;;;;1.93;0.90;;;39.80;37.50;;;;;;5986394;23;20442;-75
2022/05/25 13:31:04;;;;;;;1.13;0.80;;;39.60;35.30;;;;;;5995966;23;20448;-74
2022/05/25 13:33:38;;;;;;;1.87;0.70;;;37.80;35.70;;;;;;5996340;23;20435;-74
2022/05/25 13:36:08;;;;;;;2.50;0.80;;;36.10;37.60;;;;;;5996524;23;21314;-74